createdAt,value
2018-04-19T00:01:06.876Z,7.30
2018-04-19T00:03:34.498Z,7.27
2018-04-19T00:06:01.430Z,7.13
2018-04-19T00:08:28.289Z,6.93
2018-04-19T00:10:55.151Z,7.40
2018-04-19T00:13:22.104Z,6.50
2018-04-19T00:15:49.041Z,6.97
2018-04-19T00:18:16.680Z,6.23
2018-04-19T00:20:43.604Z,6.57
2018-04-19T00:23:10.529Z,7.17
2018-04-19T00:25:38.192Z,7.13
2018-04-19T00:28:05.865Z,7.00
2018-04-19T00:30:33.602Z,7.13
2018-04-19T00:33:00.517Z,7.33
2018-04-19T00:35:27.368Z,8.20
2018-04-19T00:37:54.368Z,8.60
2018-04-19T00:40:22.370Z,7.77
2018-04-19T00:42:49.508Z,7.87
2018-04-19T00:45:16.425Z,6.83
2018-04-19T00:47:44.025Z,7.80
2018-04-19T00:50:10.939Z,8.07
2018-04-19T00:52:56.937Z,7.73
2018-04-19T00:55:24.748Z,7.50
2018-04-19T00:57:51.612Z,8.00
2018-04-19T01:00:18.488Z,7.80
2018-04-19T01:02:46.206Z,7.33
2018-04-19T01:05:13.142Z,6.80
2018-04-19T01:07:40.019Z,6.47
2018-04-19T01:10:06.951Z,7.77
2018-04-19T01:12:34.037Z,7.13
2018-04-19T01:15:01.652Z,7.63
2018-04-19T01:17:28.526Z,7.30
2018-04-19T01:19:55.518Z,7.13
2018-04-19T01:22:22.380Z,7.20
2018-04-19T01:24:49.284Z,8.10
2018-04-19T01:27:16.940Z,7.23
2018-04-19T01:29:44.693Z,8.47
2018-04-19T01:32:11.613Z,6.93
2018-04-19T01:34:38.638Z,7.77
2018-04-19T01:37:05.521Z,7.40
2018-04-19T01:39:32.388Z,7.67
2018-04-19T01:42:00.037Z,7.20
2018-04-19T01:44:27.009Z,8.23
2018-04-19T01:46:53.991Z,8.17
2018-04-19T01:49:20.912Z,8.80
2018-04-19T01:51:47.846Z,8.70
2018-04-19T01:54:15.509Z,8.80
2018-04-19T01:56:43.181Z,7.87
2018-04-19T01:59:10.857Z,7.13
2018-04-19T02:01:37.765Z,7.03
2018-04-19T02:04:04.639Z,6.23
2018-04-19T02:06:31.583Z,7.43
2018-04-19T02:08:58.443Z,7.37
2018-04-19T02:11:25.348Z,7.53
2018-04-19T02:13:53.052Z,7.40
2018-04-19T02:16:19.973Z,6.70
2018-04-19T02:18:47.586Z,7.37
2018-04-19T02:21:14.597Z,7.43
2018-04-19T02:23:41.455Z,6.83
2018-04-19T02:26:08.412Z,6.63
2018-04-19T02:28:35.327Z,7.40
2018-04-19T02:31:02.192Z,6.17
2018-04-19T02:33:29.140Z,7.30
2018-04-19T02:35:56.258Z,6.50
2018-04-19T02:38:23.869Z,7.03
2018-04-19T02:40:50.792Z,6.73
2018-04-19T02:43:17.719Z,6.50
2018-04-19T02:45:46.266Z,7.00
2018-04-19T02:48:13.129Z,6.67
2018-04-19T02:50:40.896Z,6.30
2018-04-19T02:53:07.756Z,6.97
2018-04-19T02:55:35.408Z,7.47
2018-04-19T02:58:02.433Z,7.27
2018-04-19T03:00:29.424Z,6.90
2018-04-19T03:02:56.394Z,6.97
2018-04-19T03:05:23.341Z,6.57
2018-04-19T03:07:50.209Z,6.60
2018-04-19T03:10:17.133Z,7.37
2018-04-19T03:12:44.058Z,6.90
2018-04-19T03:15:11.187Z,7.43
2018-04-19T03:17:38.854Z,6.73
2018-04-19T03:20:05.775Z,6.60
2018-04-19T03:22:32.705Z,6.57
2018-04-19T03:24:59.630Z,7.73
2018-04-19T03:27:26.713Z,7.37
2018-04-19T03:29:53.566Z,7.37
2018-04-19T03:32:20.492Z,7.23
2018-04-19T03:34:47.422Z,7.00
2018-04-19T03:37:14.328Z,6.83
2018-04-19T03:39:41.989Z,7.17
2018-04-19T03:42:09.653Z,6.90
2018-04-19T03:44:37.320Z,7.83
2018-04-19T03:47:04.247Z,7.10
2018-04-19T03:49:31.165Z,7.77
2018-04-19T03:51:58.060Z,7.90
2018-04-19T03:54:25.708Z,7.13
2018-04-19T03:56:52.603Z,8.00
2018-04-19T03:59:19.508Z,8.13
2018-04-19T04:01:47.116Z,7.33
2018-04-19T04:04:14.080Z,7.60
2018-04-19T04:06:41.004Z,8.27
2018-04-19T04:09:07.928Z,9.73
2018-04-19T04:11:34.792Z,10.43
2018-04-19T04:14:01.658Z,9.80
2018-04-19T04:16:46.950Z,10.20
2018-04-19T04:19:32.098Z,10.80
2018-04-19T04:22:17.297Z,11.70
2018-04-19T04:24:44.178Z,10.33
2018-04-19T04:27:11.775Z,11.23
2018-04-19T04:29:40.637Z,10.50
2018-04-19T04:32:08.232Z,9.97
2018-04-19T04:34:35.221Z,9.03
2018-04-19T04:37:02.105Z,10.60
2018-04-19T04:39:28.983Z,8.60
2018-04-19T04:41:55.896Z,8.93
2018-04-19T04:44:22.785Z,9.03
2018-04-19T04:46:49.702Z,9.13
2018-04-19T04:49:16.612Z,8.23
2018-04-19T04:51:44.337Z,9.30
2018-04-19T04:54:11.207Z,7.57
2018-04-19T04:56:38.947Z,9.00
2018-04-19T04:59:05.820Z,9.37
2018-04-19T05:01:33.488Z,8.00
2018-04-19T05:04:01.203Z,8.93
2018-04-19T05:06:28.188Z,8.00
2018-04-19T05:08:55.089Z,9.23
2018-04-19T05:11:22.153Z,7.50
2018-04-19T05:13:49.942Z,8.80
2018-04-19T05:16:16.813Z,9.53
2018-04-19T05:18:44.520Z,8.90
2018-04-19T05:21:11.376Z,9.90
2018-04-19T05:23:38.309Z,8.73
2018-04-19T05:26:05.183Z,8.80
2018-04-19T05:28:32.092Z,8.33
2018-04-19T05:30:58.953Z,9.13
2018-04-19T05:33:25.822Z,9.87
2018-04-19T05:35:52.749Z,9.70
2018-04-19T05:38:20.424Z,9.20
2018-04-19T05:40:47.332Z,9.43
2018-04-19T05:43:14.208Z,8.87
2018-04-19T05:45:41.120Z,9.17
2018-04-19T05:48:08.089Z,8.53
2018-04-19T05:50:35.028Z,8.27
2018-04-19T05:53:01.969Z,8.57
2018-04-19T05:55:28.839Z,9.27
2018-04-19T05:57:55.767Z,9.23
2018-04-19T06:00:22.642Z,9.60
2018-04-19T06:02:49.574Z,10.57
2018-04-19T06:05:16.583Z,10.17
2018-04-19T06:07:43.460Z,11.27
2018-04-19T06:10:10.383Z,11.33
2018-04-19T06:12:37.244Z,10.97
2018-04-19T06:15:04.137Z,11.80
2018-04-19T06:17:31.818Z,12.53
2018-04-19T06:19:58.686Z,12.93
2018-04-19T06:22:25.645Z,12.67
2018-04-19T06:24:52.575Z,13.40
2018-04-19T06:27:19.499Z,12.50
2018-04-19T06:29:47.147Z,12.70
2018-04-19T06:32:14.805Z,12.53
2018-04-19T06:34:41.683Z,13.40
2018-04-19T06:37:08.634Z,12.90
2018-04-19T06:39:35.557Z,13.10
2018-04-19T06:42:03.223Z,14.00
2018-04-19T06:44:30.913Z,13.57
2018-04-19T06:46:57.930Z,13.53
2018-04-19T06:49:25.575Z,13.40
2018-04-19T06:51:52.492Z,13.53
2018-04-19T06:54:19.414Z,13.93
2018-04-19T06:56:46.267Z,15.73
2018-04-19T06:59:13.204Z,13.83
2018-04-19T07:01:40.382Z,15.83
2018-04-19T07:04:07.317Z,14.63
2018-04-19T07:06:34.977Z,15.93
2018-04-19T07:09:01.871Z,15.20
2018-04-19T07:11:29.584Z,16.10
2018-04-19T07:13:56.462Z,15.20
2018-04-19T07:16:23.488Z,16.43
2018-04-19T07:18:50.356Z,16.47
2018-04-19T07:21:17.227Z,17.10
2018-04-19T07:23:44.880Z,17.23
2018-04-19T07:26:11.757Z,17.33
2018-04-19T07:28:38.731Z,16.73
2018-04-19T07:31:05.639Z,16.53
2018-04-19T07:33:32.711Z,17.40
2018-04-19T07:35:59.585Z,17.90
2018-04-19T07:38:26.586Z,18.13
2018-04-19T07:40:53.514Z,17.70
2018-04-19T07:43:21.168Z,18.13
2018-04-19T07:45:48.086Z,19.37
2018-04-19T07:48:15.300Z,18.10
2018-04-19T07:50:42.206Z,19.23
2018-04-19T07:53:09.061Z,18.93
2018-04-19T07:55:36.021Z,20.10
2018-04-19T07:58:03.743Z,19.03
2018-04-19T08:00:30.614Z,18.50
2018-04-19T08:02:57.607Z,18.50
2018-04-19T08:05:24.543Z,19.83
2018-04-19T08:07:51.455Z,19.40
2018-04-19T08:10:18.398Z,20.20
2018-04-19T08:12:45.562Z,20.07
2018-04-19T08:15:13.166Z,21.07
2018-04-19T08:17:40.088Z,20.33
2018-04-19T08:20:07.084Z,19.57
2018-04-19T08:22:34.156Z,20.53
2018-04-19T08:25:01.261Z,20.50
2018-04-19T08:27:28.169Z,21.07
2018-04-19T08:29:55.819Z,21.87
2018-04-19T08:32:22.690Z,19.80
2018-04-19T08:34:49.685Z,19.77
2018-04-19T08:37:16.595Z,21.13
2018-04-19T08:39:43.537Z,20.37
2018-04-19T08:42:10.600Z,18.40
2018-04-19T08:44:37.477Z,19.97
2018-04-19T08:47:04.417Z,19.07
2018-04-19T08:49:31.383Z,19.57
2018-04-19T08:51:58.425Z,18.47
2018-04-19T08:54:25.298Z,18.07
2018-04-19T08:56:52.951Z,18.83
2018-04-19T08:59:19.848Z,17.53
2018-04-19T09:01:46.717Z,16.50
2018-04-19T09:04:13.586Z,16.13
2018-04-19T09:06:41.254Z,15.97
2018-04-19T09:09:08.922Z,15.97
2018-04-19T09:11:36.603Z,16.60
2018-04-19T09:14:03.544Z,16.23
2018-04-19T09:16:30.464Z,15.50
2018-04-19T09:18:57.372Z,16.53
2018-04-19T09:21:24.298Z,15.97
2018-04-19T09:23:51.234Z,15.50
2018-04-19T09:26:18.103Z,16.80
2018-04-19T09:28:45.060Z,15.80
2018-04-19T09:31:11.939Z,15.77
2018-04-19T09:33:38.988Z,17.03
2018-04-19T09:36:06.648Z,15.57
2018-04-19T09:38:33.526Z,15.30
2018-04-19T09:41:00.499Z,15.73
2018-04-19T09:43:27.408Z,14.87
2018-04-19T09:45:55.009Z,14.00
2018-04-19T09:48:22.087Z,16.07
2018-04-19T09:50:49.005Z,15.67
2018-04-19T09:53:15.966Z,14.90
2018-04-19T09:55:42.875Z,15.03
2018-04-19T09:58:10.070Z,15.00
2018-04-19T10:00:43.143Z,14.57
2018-04-19T10:03:16.640Z,14.43
2018-04-19T10:05:46.577Z,15.10
2018-04-19T10:08:13.580Z,15.67
2018-04-19T10:10:40.516Z,16.83
2018-04-19T10:13:08.110Z,16.47
2018-04-19T10:15:34.988Z,17.63
2018-04-19T10:18:02.255Z,17.40
2018-04-19T10:20:29.131Z,15.53
2018-04-19T10:22:55.993Z,15.30
2018-04-19T10:25:22.989Z,16.03
2018-04-19T10:27:49.852Z,17.03
2018-04-19T10:30:17.581Z,17.90
2018-04-19T10:32:44.496Z,16.10
2018-04-19T10:35:11.485Z,15.97
2018-04-19T10:37:38.389Z,15.50
2018-04-19T10:40:05.268Z,15.83
2018-04-19T10:42:32.233Z,14.97
2018-04-19T10:44:59.381Z,16.50
2018-04-19T10:47:26.252Z,16.27
2018-04-19T10:49:53.127Z,16.07
2018-04-19T10:52:20.042Z,15.93
2018-04-19T10:54:46.917Z,14.83
2018-04-19T10:57:14.013Z,15.47
2018-04-19T10:59:40.932Z,14.70
2018-04-19T11:02:07.944Z,15.97
2018-04-19T11:04:34.813Z,16.00
2018-04-19T11:07:01.799Z,14.63
2018-04-19T11:09:28.756Z,15.03
2018-04-19T11:11:56.454Z,14.53
2018-04-19T11:14:23.401Z,13.33
2018-04-19T11:16:50.304Z,13.23
2018-04-19T11:19:17.921Z,13.40
2018-04-19T11:21:44.853Z,11.97
2018-04-19T11:24:11.737Z,12.00
2018-04-19T11:26:38.714Z,12.33
2018-04-19T11:29:06.378Z,12.40
2018-04-19T11:31:33.979Z,12.13
2018-04-19T11:34:00.950Z,10.90
2018-04-19T11:36:27.813Z,11.33
2018-04-19T11:38:54.799Z,8.83
2018-04-19T11:41:21.720Z,8.93
2018-04-19T11:43:49.372Z,11.23
2018-04-19T11:46:16.300Z,7.70
2018-04-19T11:48:43.472Z,6.47
2018-04-19T11:51:10.392Z,8.40
2018-04-19T11:53:37.260Z,8.10
2018-04-19T11:56:04.206Z,10.80
2018-04-19T11:58:31.129Z,10.17
2018-04-19T12:00:59.175Z,9.70
2018-04-19T12:03:26.062Z,9.57
2018-04-19T12:05:52.987Z,10.27
2018-04-19T12:08:19.920Z,9.00
2018-04-19T12:10:46.784Z,8.70
2018-04-19T12:13:13.760Z,7.03
2018-04-19T12:15:40.669Z,8.97
2018-04-19T12:18:07.896Z,7.30
2018-04-19T12:20:34.865Z,5.80
2018-04-19T12:23:02.661Z,7.90
2018-04-19T12:25:29.598Z,7.10
2018-04-19T12:27:56.529Z,6.67
2018-04-19T12:30:23.401Z,8.23
2018-04-19T12:32:50.409Z,8.50
2018-04-19T12:35:17.388Z,8.43
2018-04-19T12:37:44.629Z,8.10
2018-04-19T12:40:11.505Z,7.40
2018-04-19T12:42:38.403Z,6.80
2018-04-19T12:45:05.372Z,6.63
2018-04-19T12:47:32.236Z,7.77
2018-04-19T12:49:59.170Z,6.60
2018-04-19T12:52:26.048Z,5.67
2018-04-19T12:54:53.800Z,5.10
2018-04-19T12:57:21.409Z,7.50
2018-04-19T12:59:48.276Z,7.37
2018-04-19T13:02:16.169Z,7.07
2018-04-19T13:04:43.076Z,7.50
2018-04-19T13:07:09.997Z,7.07
2018-04-19T13:09:36.924Z,7.57
2018-04-19T13:12:04.562Z,8.27
2018-04-19T13:14:31.472Z,9.17
2018-04-19T13:16:58.349Z,8.43
2018-04-19T13:19:25.360Z,8.87
2018-04-19T13:21:52.351Z,10.73
2018-04-19T13:24:19.226Z,12.67
2018-04-19T13:26:47.044Z,11.60
2018-04-19T13:29:13.980Z,11.20
2018-04-19T13:31:42.043Z,11.90
2018-04-19T13:34:09.028Z,10.77
2018-04-19T13:36:35.952Z,10.20
2018-04-19T13:39:03.056Z,9.77
2018-04-19T13:41:30.095Z,11.47
2018-04-19T13:43:57.806Z,11.60
2018-04-19T13:46:24.686Z,10.83
2018-04-19T13:48:51.677Z,9.60
2018-04-19T13:51:18.664Z,9.60
2018-04-19T13:53:45.767Z,10.07
2018-04-19T13:56:12.741Z,9.43
2018-04-19T13:58:39.619Z,8.67
2018-04-19T14:01:06.576Z,8.33
2018-04-19T14:03:33.449Z,8.67
2018-04-19T14:06:00.416Z,8.57
2018-04-19T14:08:27.419Z,8.67
2018-04-19T14:10:54.464Z,8.87
2018-04-19T14:13:22.006Z,9.00
2018-04-19T14:15:48.883Z,7.50
2018-04-19T14:18:16.585Z,7.47
2018-04-19T14:20:43.449Z,7.10
2018-04-19T14:23:10.330Z,6.73
2018-04-19T14:25:38.048Z,7.97
2018-04-19T14:28:04.921Z,7.87
2018-04-19T14:30:32.147Z,7.50
2018-04-19T14:32:59.015Z,7.87
2018-04-19T14:35:25.980Z,7.77
2018-04-19T14:37:53.656Z,7.80
2018-04-19T14:40:21.272Z,9.30
2018-04-19T14:42:48.192Z,8.50
2018-04-19T14:45:15.139Z,8.17
2018-04-19T14:47:42.018Z,7.23
2018-04-19T14:50:08.944Z,7.97
2018-04-19T14:52:35.818Z,6.77
2018-04-19T14:55:02.862Z,6.83
2018-04-19T14:57:29.801Z,7.03
2018-04-19T14:59:56.678Z,6.40
2018-04-19T15:02:24.337Z,6.17
2018-04-19T15:04:51.953Z,6.43
2018-04-19T15:07:18.876Z,6.73
2018-04-19T15:09:45.792Z,7.00
2018-04-19T15:12:13.816Z,6.07
2018-04-19T15:14:46.666Z,5.10
2018-04-19T15:17:13.594Z,5.23
2018-04-19T15:19:40.509Z,5.63
2018-04-19T15:22:07.409Z,5.70
2018-04-19T15:24:34.346Z,7.80
2018-04-19T15:27:02.016Z,5.47
2018-04-19T15:29:29.091Z,4.83
2018-04-19T15:31:56.039Z,4.33
2018-04-19T15:34:23.018Z,4.27
2018-04-19T15:36:49.921Z,4.17
2018-04-19T15:39:16.847Z,4.10
2018-04-19T15:41:43.813Z,4.17
2018-04-19T15:44:10.685Z,4.27
2018-04-19T15:46:37.548Z,3.87
2018-04-19T15:49:04.529Z,4.37
2018-04-19T15:51:32.132Z,4.37
2018-04-19T15:53:58.996Z,4.13
2018-04-19T15:56:25.921Z,4.83
2018-04-19T15:58:52.841Z,4.97
2018-04-19T16:01:19.769Z,5.63
2018-04-19T16:03:47.434Z,5.03
2018-04-19T16:06:15.105Z,5.00
2018-04-19T16:08:42.087Z,5.93
2018-04-19T16:11:09.025Z,5.77
2018-04-19T16:13:35.996Z,5.00
2018-04-19T16:16:03.637Z,6.47
2018-04-19T16:18:30.560Z,5.63
2018-04-19T16:20:57.706Z,5.43
2018-04-19T16:23:24.660Z,5.80
2018-04-19T16:25:51.546Z,5.87
2018-04-19T16:28:18.506Z,5.40
2018-04-19T16:30:45.560Z,6.20
2018-04-19T16:33:12.602Z,5.33
2018-04-19T16:35:39.582Z,5.40
2018-04-19T16:38:07.291Z,5.73
2018-04-19T16:40:34.179Z,5.60
2018-04-19T16:43:01.841Z,5.20
2018-04-19T16:45:29.513Z,4.97
2018-04-19T16:47:57.119Z,4.80
2018-04-19T16:50:24.046Z,5.00
2018-04-19T16:52:50.929Z,5.53
2018-04-19T16:55:17.853Z,5.53
2018-04-19T16:57:44.828Z,5.90
2018-04-19T17:00:11.765Z,4.90
2018-04-19T17:02:38.709Z,5.03
2018-04-19T17:05:06.374Z,4.73
2018-04-19T17:07:33.329Z,4.93
2018-04-19T17:10:00.188Z,5.53
2018-04-19T17:12:27.088Z,5.77
2018-04-19T17:14:54.039Z,4.87
2018-04-19T17:17:21.000Z,5.97
2018-04-19T17:19:47.868Z,5.40
2018-04-19T17:22:14.771Z,4.90
2018-04-19T17:24:41.743Z,4.93
2018-04-19T17:27:08.616Z,5.03
2018-04-19T17:29:36.289Z,4.50
2018-04-19T17:32:03.913Z,5.30
2018-04-19T17:34:30.826Z,5.87
2018-04-19T17:36:57.775Z,5.43
2018-04-19T17:39:24.631Z,5.20
2018-04-19T17:41:51.546Z,4.87
2018-04-19T17:44:18.463Z,5.40
2018-04-19T17:46:45.380Z,5.00
2018-04-19T17:49:12.356Z,5.10
2018-04-19T17:51:39.277Z,4.70
2018-04-19T17:54:06.279Z,4.13
2018-04-19T17:56:33.205Z,4.83
2018-04-19T17:59:01.064Z,7.40
2018-04-19T18:01:28.735Z,6.40
2018-04-19T18:03:56.342Z,5.23
2018-04-19T18:06:23.313Z,5.80
2018-04-19T18:08:51.813Z,5.90
2018-04-19T18:11:18.806Z,5.60
2018-04-19T18:13:45.679Z,5.23
2018-04-19T18:16:12.677Z,5.73
2018-04-19T18:18:40.384Z,5.20
2018-04-19T18:21:07.297Z,4.90
2018-04-19T18:23:34.900Z,4.43
2018-04-19T18:26:01.809Z,4.70
2018-04-19T18:28:28.857Z,4.30
2018-04-19T18:30:56.518Z,4.13
2018-04-19T18:33:23.439Z,5.10
2018-04-19T18:35:52.864Z,4.87
2018-04-19T18:38:20.471Z,5.00
2018-04-19T18:40:47.390Z,4.37
2018-04-19T18:43:14.531Z,5.03
2018-04-19T18:45:41.571Z,4.60
2018-04-19T18:48:08.526Z,5.30
2018-04-19T18:50:35.427Z,5.10
2018-04-19T18:53:02.293Z,5.13
2018-04-19T18:55:30.390Z,5.03
2018-04-19T18:57:58.124Z,5.00
2018-04-19T19:00:25.137Z,4.90
2018-04-19T19:02:52.193Z,5.03
2018-04-19T19:05:19.215Z,4.93
2018-04-19T19:07:46.081Z,5.13
2018-04-19T19:10:12.971Z,4.93
2018-04-19T19:12:40.612Z,5.83
2018-04-19T19:19:03.764Z,5.40
2018-04-19T19:21:30.835Z,5.67
2018-04-19T19:23:57.884Z,6.10
2018-04-19T19:26:24.769Z,5.20
2018-04-19T19:28:52.424Z,5.33
2018-04-19T19:31:20.093Z,5.80
2018-04-19T19:33:47.707Z,5.20
2018-04-19T19:36:14.668Z,4.97
2018-04-19T19:38:41.641Z,5.30
2018-04-19T19:41:09.253Z,5.60
2018-04-19T19:43:36.129Z,5.53
2018-04-19T19:46:03.059Z,6.30
2018-04-19T19:48:29.987Z,5.77
2018-04-19T19:50:57.658Z,6.10
2018-04-19T19:53:24.583Z,6.17
2018-04-19T19:55:51.440Z,6.43
2018-04-19T19:58:18.421Z,6.87
2018-04-19T20:00:45.328Z,7.20
2018-04-19T20:03:12.197Z,6.90
2018-04-19T20:05:39.136Z,6.87
2018-04-19T20:08:06.069Z,7.40
2018-04-19T20:10:32.935Z,7.50
2018-04-19T20:12:59.849Z,7.33
2018-04-19T20:15:26.716Z,7.77
2018-04-19T20:17:53.625Z,7.60
2018-04-19T20:20:20.492Z,8.07
2018-04-19T20:22:47.355Z,7.13
2018-04-19T20:25:14.269Z,8.63
2018-04-19T20:27:41.200Z,7.40
2018-04-19T20:30:08.870Z,7.03
2018-04-19T20:32:35.791Z,8.27
2018-04-19T20:35:02.865Z,7.27
2018-04-19T20:37:29.779Z,7.80
2018-04-19T20:39:56.700Z,7.77
2018-04-19T20:42:23.617Z,8.20
2018-04-19T20:44:50.477Z,8.27
2018-04-19T20:47:17.400Z,8.27
2018-04-19T20:49:44.262Z,8.63
2018-04-19T20:52:11.171Z,8.27
2018-04-19T20:54:38.789Z,7.97
2018-04-19T20:57:06.026Z,7.73
2018-04-19T20:59:32.890Z,7.77
2018-04-19T21:01:59.757Z,8.57
2018-04-19T21:04:26.725Z,7.73
2018-04-19T21:06:54.371Z,8.20
2018-04-19T21:09:21.449Z,7.10
2018-04-19T21:11:48.314Z,8.60
2018-04-19T21:14:15.171Z,7.60
2018-04-19T21:16:42.169Z,8.60
2018-04-19T21:19:09.776Z,8.00
2018-04-19T21:21:36.756Z,8.00
2018-04-19T21:24:03.694Z,8.13
2018-04-19T21:26:30.613Z,8.37
2018-04-19T21:28:57.584Z,7.90
2018-04-19T21:31:24.451Z,8.27
2018-04-19T21:33:51.370Z,7.20
2018-04-19T21:36:19.126Z,7.70
2018-04-19T21:38:46.000Z,7.63
2018-04-19T21:41:12.924Z,8.47
2018-04-19T21:43:39.851Z,8.03
2018-04-19T21:46:06.767Z,7.70
2018-04-19T21:48:33.645Z,8.47
2018-04-19T21:51:01.427Z,8.10
2018-04-19T21:53:28.314Z,8.33
2018-04-19T21:55:56.260Z,9.00
2018-04-19T21:58:23.453Z,8.47
2018-04-19T22:00:50.525Z,8.00
2018-04-19T22:03:17.457Z,8.77
2018-04-19T22:05:44.723Z,8.90
2018-04-19T22:08:11.701Z,9.23
2018-04-19T22:10:38.559Z,8.70
2018-04-19T22:13:05.562Z,9.07
2018-04-19T22:15:32.533Z,8.60
2018-04-19T22:17:59.502Z,9.37
2018-04-19T22:20:26.428Z,9.53
2018-04-19T22:22:53.291Z,9.00
2018-04-19T22:25:20.256Z,9.30
2018-04-19T22:27:47.862Z,9.50
2018-04-19T22:30:15.013Z,9.37
2018-04-19T22:32:41.880Z,9.87
2018-04-19T22:35:08.744Z,9.27
2018-04-19T22:37:36.236Z,9.63
2018-04-19T22:40:03.309Z,10.10
2018-04-19T22:42:30.256Z,9.90
2018-04-19T22:44:57.170Z,10.13
2018-04-19T22:47:24.044Z,10.37
2018-04-19T22:49:51.008Z,9.87
2018-04-19T22:52:17.886Z,10.40
2018-04-19T22:54:44.805Z,10.00
2018-04-19T22:57:11.716Z,9.73
2018-04-19T22:59:43.616Z,10.63
2018-04-19T23:02:10.549Z,11.07
2018-04-19T23:04:38.208Z,9.47
2018-04-19T23:07:05.103Z,10.73
2018-04-19T23:09:32.724Z,10.80
2018-04-19T23:11:59.883Z,10.10
2018-04-19T23:14:26.777Z,11.27
2018-04-19T23:16:53.709Z,11.10
2018-04-19T23:19:21.368Z,10.70
2018-04-19T23:21:49.016Z,11.90
2018-04-19T23:24:15.901Z,10.57
2018-04-19T23:26:42.966Z,11.83
2018-04-19T23:29:09.854Z,12.10
2018-04-19T23:31:36.799Z,12.17
2018-04-19T23:34:03.763Z,13.17
2018-04-19T23:36:31.399Z,11.90
2018-04-19T23:38:58.402Z,11.57
2018-04-19T23:41:25.340Z,12.33
2018-04-19T23:43:52.285Z,11.67
2018-04-19T23:46:19.187Z,12.33
2018-04-19T23:48:46.181Z,12.40
2018-04-19T23:51:13.139Z,12.47
2018-04-19T23:53:40.061Z,13.63
2018-04-19T23:56:06.966Z,13.13
2018-04-19T23:58:34.012Z,13.57
